createdAt,value
2019-03-09T00:01:02.829Z,6.80
2019-03-09T00:03:32.720Z,6.70
2019-03-09T00:06:03.174Z,6.70
2019-03-09T00:08:33.057Z,6.80
2019-03-09T00:11:03.081Z,6.80
2019-03-09T00:13:32.827Z,6.80
2019-03-09T00:16:02.922Z,6.80
2019-03-09T00:18:32.769Z,6.80
2019-03-09T00:21:02.734Z,6.80
2019-03-09T00:23:50.285Z,6.90
2019-03-09T00:26:26.424Z,6.80
2019-03-09T00:29:09.675Z,6.90
2019-03-09T00:31:54.525Z,6.90
2019-03-09T00:34:24.509Z,6.90
2019-03-09T00:41:05.794Z,6.90
2019-03-09T00:43:35.900Z,7.00
2019-03-09T00:46:05.837Z,6.90
2019-03-09T00:48:35.855Z,7.00
2019-03-09T00:51:05.822Z,7.00
2019-03-09T00:53:35.564Z,7.00
2019-03-09T00:56:05.370Z,7.10
2019-03-09T00:58:35.171Z,7.10
2019-03-09T01:01:05.027Z,7.10
2019-03-09T01:03:34.835Z,7.00
2019-03-09T01:06:04.593Z,7.00
2019-03-09T01:08:34.499Z,7.10
2019-03-09T01:11:04.341Z,7.00
2019-03-09T01:13:34.237Z,7.00
2019-03-09T01:16:04.092Z,7.10
2019-03-09T01:18:33.968Z,7.10
2019-03-09T01:21:03.923Z,7.10
2019-03-09T01:23:33.812Z,7.10
2019-03-09T01:26:03.668Z,7.10
2019-03-09T01:28:33.787Z,7.10
2019-03-09T01:31:04.911Z,7.10
2019-03-09T01:33:34.833Z,7.20
2019-03-09T01:36:04.637Z,7.20
2019-03-09T01:42:07.251Z,7.20
2019-03-09T01:44:37.198Z,7.30
2019-03-09T01:47:07.184Z,7.30
2019-03-09T01:49:37.229Z,7.30
2019-03-09T01:52:07.166Z,7.30
2019-03-09T01:54:37.002Z,7.40
2019-03-09T01:57:07.342Z,7.40
2019-03-09T01:59:56.339Z,7.40
2019-03-09T02:02:26.307Z,7.40
2019-03-09T02:04:56.148Z,7.50
2019-03-09T02:07:45.549Z,7.50
2019-03-09T02:10:16.094Z,7.50
2019-03-09T02:12:46.065Z,7.60
2019-03-09T02:15:16.260Z,7.60
2019-03-09T02:17:46.149Z,7.70
2019-03-09T02:20:16.171Z,7.70
2019-03-09T02:22:46.028Z,7.70
2019-03-09T02:25:16.428Z,7.70
2019-03-09T02:27:46.332Z,7.80
2019-03-09T02:30:16.545Z,7.80
2019-03-09T02:32:46.635Z,7.80
2019-03-09T02:35:16.507Z,7.80
2019-03-09T02:37:46.744Z,7.80
2019-03-09T02:40:23.238Z,7.80
2019-03-09T02:42:53.285Z,7.80
2019-03-09T02:45:23.929Z,7.80
2019-03-09T02:47:54.074Z,7.90
2019-03-09T02:50:24.037Z,7.90
2019-03-09T02:52:53.863Z,7.90
2019-03-09T02:55:23.658Z,7.90
2019-03-09T02:57:53.636Z,7.90
2019-03-09T03:00:23.406Z,7.90
2019-03-09T03:02:57.007Z,7.90
2019-03-09T03:05:26.869Z,7.90
2019-03-09T03:07:56.637Z,8.00
2019-03-09T03:10:26.912Z,8.00
2019-03-09T03:12:56.842Z,8.00
2019-03-09T03:15:31.817Z,8.00
2019-03-09T03:18:01.971Z,8.00
2019-03-09T03:20:32.043Z,8.10
2019-03-09T03:23:02.018Z,8.10
2019-03-09T03:25:32.359Z,8.10
2019-03-09T03:28:02.208Z,8.10
2019-03-09T03:30:32.138Z,8.20
2019-03-09T03:33:02.304Z,8.20
2019-03-09T03:35:32.387Z,8.20
2019-03-09T03:38:02.235Z,8.30
2019-03-09T03:40:32.148Z,8.30
2019-03-09T03:43:02.022Z,8.30
2019-03-09T03:45:31.975Z,8.30
2019-03-09T03:48:01.808Z,8.30
2019-03-09T03:50:31.512Z,8.30
2019-03-09T03:56:34.181Z,8.30
2019-03-09T03:59:03.952Z,8.30
2019-03-09T04:01:33.873Z,8.30
2019-03-09T04:04:04.037Z,8.20
2019-03-09T04:06:33.896Z,8.20
2019-03-09T04:09:05.668Z,8.20
2019-03-09T04:11:36.121Z,8.10
2019-03-09T04:14:05.942Z,8.00
2019-03-09T04:16:35.989Z,7.90
2019-03-09T04:19:05.791Z,7.80
2019-03-09T04:21:35.593Z,7.80
2019-03-09T04:24:05.501Z,7.90
2019-03-09T04:26:35.344Z,7.90
2019-03-09T04:29:08.053Z,7.80
2019-03-09T04:31:38.073Z,7.70
2019-03-09T04:34:08.035Z,7.80
2019-03-09T04:36:38.075Z,7.80
2019-03-09T04:39:08.701Z,7.70
2019-03-09T04:41:38.575Z,7.60
2019-03-09T04:44:08.757Z,7.70
2019-03-09T04:46:38.945Z,7.60
2019-03-09T04:49:08.717Z,7.60
2019-03-09T04:51:38.665Z,7.60
2019-03-09T04:54:08.657Z,7.50
2019-03-09T04:56:38.517Z,7.40
2019-03-09T04:59:08.460Z,7.30
2019-03-09T05:01:38.536Z,7.40
2019-03-09T05:04:47.392Z,7.30
2019-03-09T05:07:26.120Z,7.30
2019-03-09T05:10:05.255Z,7.20
2019-03-09T05:12:35.125Z,7.30
2019-03-09T05:15:06.155Z,7.20
2019-03-09T05:17:35.969Z,7.20
2019-03-09T05:20:06.325Z,7.20
2019-03-09T05:22:36.471Z,7.20
2019-03-09T05:25:06.475Z,7.20
2019-03-09T05:27:36.587Z,7.30
2019-03-09T05:30:07.801Z,7.30
2019-03-09T05:32:37.558Z,7.20
2019-03-09T05:35:07.378Z,7.30
2019-03-09T05:37:43.121Z,7.30
2019-03-09T05:40:09.399Z,7.30
2019-03-09T05:42:39.270Z,7.30
2019-03-09T05:45:09.179Z,7.30
2019-03-09T05:47:47.089Z,7.30
2019-03-09T05:50:17.453Z,7.30
2019-03-09T05:52:52.010Z,7.30
2019-03-09T05:55:22.709Z,7.30
2019-03-09T05:57:52.539Z,7.30
2019-03-09T06:00:22.276Z,7.30
2019-03-09T06:02:52.094Z,7.30
2019-03-09T06:05:34.824Z,7.30
2019-03-09T06:08:05.435Z,7.40
2019-03-09T06:10:35.781Z,7.40
2019-03-09T06:13:06.066Z,7.40
2019-03-09T06:15:36.478Z,7.40
2019-03-09T06:18:06.582Z,7.50
2019-03-09T06:20:39.445Z,7.50
2019-03-09T06:23:09.379Z,7.50
2019-03-09T06:25:39.234Z,7.50
2019-03-09T06:28:09.253Z,7.50
2019-03-09T06:30:39.495Z,7.50
2019-03-09T06:33:24.235Z,7.50
2019-03-09T06:36:02.761Z,7.50
2019-03-09T06:42:46.732Z,7.50
2019-03-09T06:45:17.927Z,7.60
2019-03-09T06:47:48.625Z,7.60
2019-03-09T06:50:21.517Z,7.60
2019-03-09T06:52:51.510Z,7.60
2019-03-09T06:55:21.723Z,7.70
2019-03-09T06:57:51.729Z,7.70
2019-03-09T07:00:39.940Z,7.80
2019-03-09T07:03:11.177Z,7.80
2019-03-09T07:05:40.979Z,7.80
2019-03-09T07:08:10.823Z,7.80
2019-03-09T07:10:40.806Z,7.90
2019-03-09T07:13:10.964Z,7.90
2019-03-09T07:15:42.947Z,7.90
2019-03-09T07:18:22.324Z,8.00
2019-03-09T07:20:52.316Z,8.00
2019-03-09T07:23:22.190Z,8.10
2019-03-09T07:25:52.557Z,8.10
2019-03-09T07:28:22.420Z,8.20
2019-03-09T07:30:52.208Z,8.30
2019-03-09T07:33:22.260Z,8.40
2019-03-09T07:35:52.126Z,8.40
2019-03-09T07:38:21.815Z,8.40
2019-03-09T07:40:52.394Z,8.50
2019-03-09T07:43:22.772Z,8.50
2019-03-09T07:45:52.500Z,8.60
2019-03-09T07:48:22.301Z,8.60
2019-03-09T07:50:52.548Z,8.60
2019-03-09T07:53:22.485Z,8.70
2019-03-09T07:55:54.070Z,8.80
2019-03-09T07:58:23.883Z,8.80
2019-03-09T08:00:53.746Z,8.70
2019-03-09T08:03:23.856Z,8.80
2019-03-09T08:05:53.647Z,8.80
2019-03-09T08:08:23.389Z,8.90
2019-03-09T08:10:53.596Z,8.90
2019-03-09T08:13:23.285Z,9.00
2019-03-09T08:15:53.056Z,9.00
2019-03-09T08:18:22.908Z,9.10
2019-03-09T08:20:52.790Z,9.10
2019-03-09T08:23:22.563Z,9.20
2019-03-09T08:25:52.466Z,9.20
2019-03-09T08:28:22.246Z,9.30
2019-03-09T08:30:52.058Z,9.30
2019-03-09T08:33:22.077Z,9.30
2019-03-09T08:35:52.264Z,9.30
2019-03-09T08:38:22.376Z,9.30
2019-03-09T08:40:52.192Z,9.40
2019-03-09T08:43:22.240Z,9.40
2019-03-09T08:45:52.115Z,9.40
2019-03-09T08:48:22.363Z,9.50
2019-03-09T08:50:52.485Z,9.50
2019-03-09T08:53:22.497Z,9.50
2019-03-09T08:55:52.357Z,9.50
2019-03-09T08:58:22.264Z,9.50
2019-03-09T09:00:52.077Z,9.60
2019-03-09T09:03:22.026Z,9.60
2019-03-09T09:05:51.855Z,9.60
2019-03-09T09:08:22.242Z,9.60
2019-03-09T09:10:52.524Z,9.60
2019-03-09T09:13:22.356Z,9.70
2019-03-09T09:15:52.626Z,9.70
2019-03-09T09:18:22.888Z,9.80
2019-03-09T09:20:52.658Z,9.80
2019-03-09T09:23:22.565Z,9.80
2019-03-09T09:25:52.888Z,9.80
2019-03-09T09:28:22.722Z,9.80
2019-03-09T09:30:52.464Z,9.80
2019-03-09T09:33:22.362Z,9.80
2019-03-09T09:35:52.095Z,9.80
2019-03-09T09:38:21.995Z,9.80
2019-03-09T09:40:51.804Z,9.90
2019-03-09T09:43:21.725Z,9.90
2019-03-09T09:45:51.516Z,9.90
2019-03-09T09:48:21.337Z,10.00
2019-03-09T09:51:11.935Z,10.00
2019-03-09T09:57:29.385Z,10.20
2019-03-09T10:00:00.509Z,10.40
2019-03-09T10:02:30.263Z,10.60
2019-03-09T10:04:59.967Z,10.80
2019-03-09T10:07:29.707Z,11.00
2019-03-09T10:09:59.615Z,11.10
2019-03-09T10:12:29.392Z,11.00
2019-03-09T10:14:59.646Z,10.90
2019-03-09T10:17:29.621Z,10.80
2019-03-09T10:19:59.439Z,10.70
2019-03-09T10:22:29.432Z,10.70
2019-03-09T10:24:59.328Z,10.80
2019-03-09T10:27:29.058Z,10.80
2019-03-09T10:29:58.803Z,10.80
2019-03-09T10:32:28.527Z,10.80
2019-03-09T10:34:58.289Z,10.80
2019-03-09T10:37:28.103Z,10.80
2019-03-09T10:39:57.889Z,10.80
2019-03-09T10:42:27.609Z,10.80
2019-03-09T10:44:57.421Z,10.80
2019-03-09T10:47:27.150Z,10.80
2019-03-09T10:49:56.855Z,10.70
2019-03-09T10:52:26.645Z,10.50
2019-03-09T10:54:56.403Z,10.40
2019-03-09T10:57:26.245Z,10.30
2019-03-09T10:59:56.089Z,10.20
2019-03-09T11:02:25.958Z,10.10
2019-03-09T11:04:55.813Z,10.10
2019-03-09T11:07:25.575Z,10.00
2019-03-09T11:09:55.267Z,10.00
2019-03-09T11:12:24.993Z,10.00
2019-03-09T11:14:54.924Z,10.00
2019-03-09T11:17:24.845Z,9.90
2019-03-09T11:19:54.863Z,10.00
2019-03-09T11:22:24.785Z,10.10
2019-03-09T11:25:03.078Z,10.50
2019-03-09T11:27:26.079Z,10.80
2019-03-09T11:29:55.871Z,11.00
2019-03-09T11:32:25.730Z,11.20
2019-03-09T11:34:55.427Z,11.20
2019-03-09T11:37:45.402Z,11.40
2019-03-09T11:40:15.711Z,11.50
2019-03-09T11:42:45.576Z,11.80
2019-03-09T11:45:15.892Z,12.10
2019-03-09T11:47:45.718Z,12.00
2019-03-09T11:50:15.949Z,12.00
2019-03-09T11:52:46.245Z,12.00
2019-03-09T11:55:16.389Z,12.20
2019-03-09T11:57:46.284Z,12.40
2019-03-09T12:00:21.370Z,12.40
2019-03-09T12:02:51.243Z,12.40
2019-03-09T12:05:21.064Z,12.40
2019-03-09T12:07:50.804Z,12.30
2019-03-09T12:10:20.582Z,12.10
2019-03-09T12:12:50.864Z,11.90
2019-03-09T12:15:20.593Z,11.70
2019-03-09T12:17:50.905Z,11.50
2019-03-09T12:20:22.474Z,11.40
2019-03-09T12:22:52.362Z,11.30
2019-03-09T12:25:22.180Z,11.20
2019-03-09T12:27:52.052Z,11.30
2019-03-09T12:30:21.970Z,11.30
2019-03-09T12:32:51.732Z,11.10
2019-03-09T12:35:21.607Z,11.00
2019-03-09T12:37:51.992Z,10.80
2019-03-09T12:40:21.922Z,10.60
2019-03-09T12:42:51.640Z,10.40
2019-03-09T12:45:21.666Z,10.30
2019-03-09T12:47:51.568Z,10.30
2019-03-09T12:50:21.906Z,10.30
2019-03-09T12:52:51.716Z,10.30
2019-03-09T12:55:21.909Z,10.30
2019-03-09T12:57:51.720Z,10.30
2019-03-09T13:00:21.738Z,10.30
2019-03-09T13:02:51.657Z,10.30
2019-03-09T13:05:21.400Z,10.20
2019-03-09T13:07:51.281Z,10.20
2019-03-09T13:10:21.021Z,10.20
2019-03-09T13:12:50.917Z,10.30
2019-03-09T13:15:20.792Z,10.20
2019-03-09T13:17:50.686Z,10.10
2019-03-09T13:20:20.487Z,10.00
2019-03-09T13:22:50.313Z,9.90
2019-03-09T13:25:20.101Z,9.80
2019-03-09T13:27:49.904Z,9.80
2019-03-09T13:30:20.206Z,9.80
2019-03-09T13:32:49.938Z,9.80
2019-03-09T13:35:19.731Z,10.10
2019-03-09T13:37:49.580Z,10.30
2019-03-09T13:40:19.298Z,10.40
2019-03-09T13:42:49.023Z,10.50
2019-03-09T13:45:18.805Z,10.50
2019-03-09T13:47:48.651Z,10.40
2019-03-09T13:50:18.385Z,10.30
2019-03-09T13:52:48.208Z,10.40
2019-03-09T13:55:18.025Z,10.30
2019-03-09T13:57:47.905Z,10.30
2019-03-09T14:00:17.784Z,10.20
2019-03-09T14:02:47.737Z,10.10
2019-03-09T14:05:17.593Z,10.00
2019-03-09T14:07:47.363Z,9.80
2019-03-09T14:10:17.150Z,9.60
2019-03-09T14:12:47.008Z,9.30
2019-03-09T14:15:16.806Z,9.10
2019-03-09T14:17:46.624Z,9.00
2019-03-09T14:20:17.098Z,9.10
2019-03-09T14:22:47.082Z,9.10
2019-03-09T14:25:16.906Z,9.10
2019-03-09T14:27:46.702Z,9.00
2019-03-09T14:30:16.518Z,8.90
2019-03-09T14:32:46.397Z,8.80
2019-03-09T14:35:16.241Z,8.70
2019-03-09T14:37:45.970Z,8.70
2019-03-09T14:43:50.062Z,8.70
2019-03-09T14:46:19.780Z,8.70
2019-03-09T14:48:49.547Z,8.60
2019-03-09T14:51:19.337Z,8.70
2019-03-09T14:53:49.098Z,8.60
2019-03-09T14:56:18.776Z,8.60
2019-03-09T14:58:48.524Z,8.60
2019-03-09T15:01:18.275Z,8.50
2019-03-09T15:03:48.134Z,8.40
2019-03-09T15:06:18.058Z,8.40
2019-03-09T15:08:47.851Z,8.20
2019-03-09T15:11:17.830Z,8.00
2019-03-09T15:13:47.873Z,8.00
2019-03-09T15:16:17.675Z,7.80
2019-03-09T15:18:47.489Z,7.70
2019-03-09T15:21:17.542Z,8.00
2019-03-09T15:23:47.402Z,8.20
2019-03-09T15:26:17.185Z,8.40
2019-03-09T15:28:46.963Z,8.50
2019-03-09T15:31:16.723Z,8.60
2019-03-09T15:33:46.540Z,8.70
2019-03-09T15:36:16.385Z,8.80
2019-03-09T15:38:46.246Z,8.90
2019-03-09T15:41:16.066Z,9.10
2019-03-09T15:43:45.858Z,9.20
2019-03-09T15:46:15.710Z,9.30
2019-03-09T15:48:45.530Z,9.40
2019-03-09T15:51:15.377Z,9.50
2019-03-09T15:53:46.802Z,9.60
2019-03-09T15:56:16.564Z,9.60
2019-03-09T15:58:46.377Z,9.60
2019-03-09T16:01:16.104Z,9.70
2019-03-09T16:03:45.824Z,9.70
2019-03-09T16:06:16.806Z,9.70
2019-03-09T16:08:46.902Z,9.70
2019-03-09T16:11:16.745Z,9.80
2019-03-09T16:13:46.978Z,9.80
2019-03-09T16:16:16.876Z,9.70
2019-03-09T16:18:46.804Z,9.60
2019-03-09T16:21:16.601Z,9.60
2019-03-09T16:23:46.372Z,9.60
2019-03-09T16:26:16.298Z,9.50
2019-03-09T16:28:46.615Z,9.40
2019-03-09T16:31:16.422Z,9.30
2019-03-09T16:33:46.701Z,9.30
2019-03-09T16:36:16.508Z,9.20
2019-03-09T16:38:46.322Z,9.10
2019-03-09T16:41:16.255Z,8.90
2019-03-09T16:43:46.027Z,8.70
2019-03-09T16:46:15.750Z,8.60
2019-03-09T16:48:45.526Z,8.40
2019-03-09T16:51:15.280Z,8.40
2019-03-09T16:53:45.049Z,8.30
2019-03-09T16:56:14.793Z,8.20
2019-03-09T16:58:44.620Z,8.10
2019-03-09T17:01:14.736Z,8.00
2019-03-09T17:03:44.435Z,8.00
2019-03-09T17:06:14.161Z,7.90
2019-03-09T17:08:44.102Z,7.80
2019-03-09T17:11:14.063Z,7.80
2019-03-09T17:13:43.774Z,7.70
2019-03-09T17:16:13.701Z,7.70
2019-03-09T17:18:43.646Z,7.60
2019-03-09T17:21:13.526Z,7.60
2019-03-09T17:23:53.165Z,7.50
2019-03-09T17:33:13.034Z,7.30
2019-03-09T17:35:42.847Z,7.30
2019-03-09T17:38:12.811Z,7.20
2019-03-09T17:40:43.666Z,7.20
2019-03-09T17:43:13.966Z,7.20
2019-03-09T17:45:44.044Z,7.10
2019-03-09T17:48:13.839Z,7.00
2019-03-09T17:50:43.672Z,7.10
2019-03-09T17:53:14.147Z,7.00
2019-03-09T17:55:44.363Z,7.10
2019-03-09T17:58:14.228Z,7.10
2019-03-09T18:00:45.720Z,7.10
2019-03-09T18:03:15.629Z,7.00
2019-03-09T18:05:45.549Z,7.00
2019-03-09T18:08:15.322Z,6.90
2019-03-09T18:10:48.161Z,6.90
2019-03-09T18:13:18.448Z,6.80
2019-03-09T18:15:48.289Z,6.80
2019-03-09T18:18:18.256Z,6.90
2019-03-09T18:20:48.072Z,6.90
2019-03-09T18:23:17.937Z,6.80
2019-03-09T18:25:47.869Z,6.80
2019-03-09T18:28:17.988Z,6.70
2019-03-09T18:30:47.785Z,6.70
2019-03-09T18:33:17.656Z,6.70
2019-03-09T18:35:47.513Z,6.70
2019-03-09T18:38:20.447Z,6.70
2019-03-09T18:41:08.129Z,6.80
2019-03-09T18:43:32.577Z,6.70
2019-03-09T18:46:02.479Z,6.60
2019-03-09T18:48:32.449Z,6.50
2019-03-09T18:51:02.355Z,6.60
2019-03-09T18:53:32.109Z,6.40
2019-03-09T18:56:01.933Z,6.40
2019-03-09T18:58:34.478Z,6.40
2019-03-09T19:01:04.346Z,6.30
2019-03-09T19:03:34.316Z,6.40
2019-03-09T19:06:04.129Z,6.40
2019-03-09T19:08:34.086Z,6.50
2019-03-09T19:11:03.913Z,6.50
2019-03-09T19:13:33.714Z,6.50
2019-03-09T19:16:03.489Z,6.60
2019-03-09T19:18:33.330Z,6.50
2019-03-09T19:21:03.311Z,6.50
2019-03-09T19:23:33.257Z,6.50
2019-03-09T19:26:03.046Z,6.50
2019-03-09T19:28:32.947Z,6.50
2019-03-09T19:31:02.813Z,6.50
2019-03-09T19:33:32.768Z,6.50
2019-03-09T19:36:02.619Z,6.60
2019-03-09T19:38:32.436Z,6.70
2019-03-09T19:41:02.482Z,6.60
2019-03-09T19:43:32.383Z,6.70
2019-03-09T19:46:02.247Z,6.70
2019-03-09T19:48:32.195Z,6.60
2019-03-09T19:51:02.000Z,6.70
2019-03-09T19:53:31.827Z,6.80
2019-03-09T19:56:01.618Z,6.80
2019-03-09T19:58:31.441Z,6.80
2019-03-09T20:01:01.424Z,6.90
2019-03-09T20:03:31.201Z,6.90
2019-03-09T20:06:01.046Z,6.80
2019-03-09T20:08:30.957Z,6.80
2019-03-09T20:11:00.846Z,6.60
2019-03-09T20:13:30.774Z,6.60
2019-03-09T20:16:00.854Z,6.60
2019-03-09T20:18:30.653Z,6.60
2019-03-09T20:21:00.432Z,6.50
2019-03-09T20:23:30.198Z,6.60
2019-03-09T20:26:00.114Z,6.60
2019-03-09T20:28:30.150Z,6.70
2019-03-09T20:31:00.104Z,6.70
2019-03-09T20:33:29.946Z,6.70
2019-03-09T20:35:59.889Z,6.70
2019-03-09T20:38:29.882Z,6.60
2019-03-09T20:40:59.856Z,6.60
2019-03-09T20:43:29.806Z,6.60
2019-03-09T20:45:59.843Z,6.70
2019-03-09T20:48:30.258Z,6.70
2019-03-09T20:51:00.076Z,6.80
2019-03-09T20:53:29.854Z,6.70
2019-03-09T20:55:59.628Z,6.80
2019-03-09T20:58:29.502Z,6.80
2019-03-09T21:00:59.330Z,6.80
2019-03-09T21:03:29.230Z,6.80
2019-03-09T21:05:58.975Z,6.80
2019-03-09T21:08:28.858Z,7.00
2019-03-09T21:11:03.939Z,7.00
2019-03-09T21:13:30.145Z,7.00
2019-03-09T21:15:59.888Z,7.00
2019-03-09T21:18:29.758Z,6.90
2019-03-09T21:20:59.554Z,6.90
2019-03-09T21:23:29.472Z,6.90
2019-03-09T21:25:59.266Z,6.90
2019-03-09T21:28:29.101Z,6.90
2019-03-09T21:30:58.862Z,7.00
2019-03-09T21:33:28.715Z,7.00
2019-03-09T21:35:58.611Z,7.00
2019-03-09T21:38:28.392Z,7.00
2019-03-09T21:40:58.442Z,7.00
2019-03-09T21:43:28.654Z,7.00
2019-03-09T21:45:58.604Z,7.00
2019-03-09T21:48:28.406Z,7.10
2019-03-09T21:50:58.308Z,7.20
2019-03-09T21:53:28.380Z,7.20
2019-03-09T21:55:58.564Z,7.10
2019-03-09T21:58:40.794Z,7.00
2019-03-09T22:01:11.035Z,7.00
2019-03-09T22:03:43.410Z,7.00
2019-03-09T22:06:13.171Z,7.00
2019-03-09T22:08:42.933Z,7.00
2019-03-09T22:11:12.801Z,7.10
2019-03-09T22:13:44.826Z,7.10
2019-03-09T22:16:14.664Z,7.10
2019-03-09T22:18:44.678Z,7.10
2019-03-09T22:21:14.510Z,7.00
2019-03-09T22:23:44.524Z,7.00
2019-03-09T22:29:46.832Z,7.20
2019-03-09T22:32:16.761Z,7.10
2019-03-09T22:34:46.713Z,7.10
2019-03-09T22:37:16.528Z,7.00
2019-03-09T22:39:46.403Z,7.00
2019-03-09T22:42:16.580Z,6.90
2019-03-09T22:44:46.500Z,6.90
2019-03-09T22:47:16.321Z,6.80
2019-03-09T22:49:46.215Z,6.80
2019-03-09T22:52:16.083Z,6.80
2019-03-09T22:54:46.442Z,6.90
2019-03-09T22:57:16.391Z,6.90
2019-03-09T22:59:46.442Z,6.90
2019-03-09T23:02:16.266Z,6.90
2019-03-09T23:04:46.216Z,6.90
2019-03-09T23:07:15.974Z,6.80
2019-03-09T23:09:45.682Z,6.80
2019-03-09T23:12:15.876Z,6.90
2019-03-09T23:14:45.859Z,6.90
2019-03-09T23:17:15.636Z,6.80
2019-03-09T23:19:45.508Z,6.80
2019-03-09T23:22:15.667Z,6.80
2019-03-09T23:24:45.575Z,6.80
2019-03-09T23:27:15.387Z,6.80
2019-03-09T23:29:45.272Z,6.70
2019-03-09T23:32:14.984Z,6.70
2019-03-09T23:34:44.911Z,6.70
2019-03-09T23:37:14.752Z,6.70
2019-03-09T23:39:44.713Z,6.60
2019-03-09T23:42:15.017Z,6.60
2019-03-09T23:44:44.891Z,6.60
2019-03-09T23:47:14.614Z,6.60
2019-03-09T23:49:44.471Z,6.60
2019-03-09T23:52:14.233Z,6.60
2019-03-09T23:54:43.967Z,6.60
2019-03-09T23:57:13.724Z,6.60
2019-03-09T23:59:43.570Z,6.70
